sensor_id;sensor_type;location;lat;lon;timestamp;P1;durP1;ratioP1;P2;durP2;ratioP2
9082;SDS011;4577;48.704;9.000;2022-08-27T00:01:58;30.10;;;22.07;;
9082;SDS011;4577;48.704;9.000;2022-08-27T00:04:24;29.00;;;22.10;;
9082;SDS011;4577;48.704;9.000;2022-08-27T00:06:50;30.60;;;23.33;;
9082;SDS011;4577;48.704;9.000;2022-08-27T00:09:15;29.80;;;23.30;;
9082;SDS011;4577;48.704;9.000;2022-08-27T00:11:41;31.60;;;23.67;;
9082;SDS011;4577;48.704;9.000;2022-08-27T00:14:08;28.97;;;23.53;;
9082;SDS011;4577;48.704;9.000;2022-08-27T00:16:35;34.77;;;23.70;;
9082;SDS011;4577;48.704;9.000;2022-08-27T00:19:00;30.43;;;24.10;;
9082;SDS011;4577;48.704;9.000;2022-08-27T00:21:26;30.23;;;24.07;;
9082;SDS011;4577;48.704;9.000;2022-08-27T00:23:52;34.47;;;24.17;;
9082;SDS011;4577;48.704;9.000;2022-08-27T00:26:17;33.00;;;25.03;;
9082;SDS011;4577;48.704;9.000;2022-08-27T00:28:43;32.70;;;24.63;;
9082;SDS011;4577;48.704;9.000;2022-08-27T00:31:09;36.00;;;26.10;;
9082;SDS011;4577;48.704;9.000;2022-08-27T00:33:35;34.53;;;26.50;;
9082;SDS011;4577;48.704;9.000;2022-08-27T00:36:02;35.13;;;27.10;;
9082;SDS011;4577;48.704;9.000;2022-08-27T00:38:29;39.10;;;26.93;;
9082;SDS011;4577;48.704;9.000;2022-08-27T00:40:55;36.30;;;28.80;;
9082;SDS011;4577;48.704;9.000;2022-08-27T00:43:24;36.47;;;26.60;;
9082;SDS011;4577;48.704;9.000;2022-08-27T00:45:54;39.00;;;27.40;;
9082;SDS011;4577;48.704;9.000;2022-08-27T00:48:26;33.67;;;26.50;;
9082;SDS011;4577;48.704;9.000;2022-08-27T00:50:55;35.70;;;26.20;;
9082;SDS011;4577;48.704;9.000;2022-08-27T00:53:25;34.07;;;27.27;;
9082;SDS011;4577;48.704;9.000;2022-08-27T00:55:55;36.90;;;26.97;;
9082;SDS011;4577;48.704;9.000;2022-08-27T00:58:26;36.90;;;25.87;;
9082;SDS011;4577;48.704;9.000;2022-08-27T01:00:54;36.07;;;26.50;;
9082;SDS011;4577;48.704;9.000;2022-08-27T01:03:20;34.10;;;25.70;;
9082;SDS011;4577;48.704;9.000;2022-08-27T01:05:47;41.90;;;25.20;;
9082;SDS011;4577;48.704;9.000;2022-08-27T01:08:16;33.87;;;25.20;;
9082;SDS011;4577;48.704;9.000;2022-08-27T01:10:44;37.20;;;28.40;;
9082;SDS011;4577;48.704;9.000;2022-08-27T01:13:11;31.37;;;25.20;;
9082;SDS011;4577;48.704;9.000;2022-08-27T01:15:40;35.00;;;25.97;;
9082;SDS011;4577;48.704;9.000;2022-08-27T01:18:06;32.80;;;25.30;;
9082;SDS011;4577;48.704;9.000;2022-08-27T01:20:40;36.73;;;26.00;;
9082;SDS011;4577;48.704;9.000;2022-08-27T01:25:41;35.83;;;25.50;;
9082;SDS011;4577;48.704;9.000;2022-08-27T01:28:08;31.27;;;25.00;;
9082;SDS011;4577;48.704;9.000;2022-08-27T01:30:35;35.13;;;24.87;;
9082;SDS011;4577;48.704;9.000;2022-08-27T01:33:07;26.70;;;21.80;;
9082;SDS011;4577;48.704;9.000;2022-08-27T01:35:39;29.57;;;21.93;;
9082;SDS011;4577;48.704;9.000;2022-08-27T01:38:05;27.63;;;21.67;;
9082;SDS011;4577;48.704;9.000;2022-08-27T01:40:32;29.30;;;22.63;;
9082;SDS011;4577;48.704;9.000;2022-08-27T01:42:57;27.60;;;22.27;;
9082;SDS011;4577;48.704;9.000;2022-08-27T01:45:25;28.37;;;22.87;;
9082;SDS011;4577;48.704;9.000;2022-08-27T01:47:54;29.13;;;22.93;;
9082;SDS011;4577;48.704;9.000;2022-08-27T01:50:31;29.00;;;23.13;;
9082;SDS011;4577;48.704;9.000;2022-08-27T01:53:04;31.20;;;22.20;;
9082;SDS011;4577;48.704;9.000;2022-08-27T01:55:32;28.43;;;21.27;;
9082;SDS011;4577;48.704;9.000;2022-08-27T01:57:58;28.20;;;22.27;;
9082;SDS011;4577;48.704;9.000;2022-08-27T02:00:28;31.07;;;22.60;;
9082;SDS011;4577;48.704;9.000;2022-08-27T02:02:57;29.40;;;22.40;;
9082;SDS011;4577;48.704;9.000;2022-08-27T02:05:24;33.70;;;23.13;;
9082;SDS011;4577;48.704;9.000;2022-08-27T02:07:50;30.10;;;22.73;;
9082;SDS011;4577;48.704;9.000;2022-08-27T02:10:18;33.13;;;22.37;;
9082;SDS011;4577;48.704;9.000;2022-08-27T02:12:47;31.47;;;22.90;;
9082;SDS011;4577;48.704;9.000;2022-08-27T02:15:13;27.37;;;20.90;;
9082;SDS011;4577;48.704;9.000;2022-08-27T02:17:40;26.83;;;21.13;;
9082;SDS011;4577;48.704;9.000;2022-08-27T02:20:06;33.07;;;23.17;;
9082;SDS011;4577;48.704;9.000;2022-08-27T02:22:35;34.10;;;23.10;;
9082;SDS011;4577;48.704;9.000;2022-08-27T02:25:01;28.27;;;22.50;;
9082;SDS011;4577;48.704;9.000;2022-08-27T02:27:27;31.37;;;22.50;;
9082;SDS011;4577;48.704;9.000;2022-08-27T02:29:53;25.90;;;19.80;;
9082;SDS011;4577;48.704;9.000;2022-08-27T02:32:20;24.33;;;20.27;;
9082;SDS011;4577;48.704;9.000;2022-08-27T02:34:46;23.87;;;20.47;;
9082;SDS011;4577;48.704;9.000;2022-08-27T02:37:13;30.27;;;22.60;;
9082;SDS011;4577;48.704;9.000;2022-08-27T02:39:39;30.00;;;23.50;;
9082;SDS011;4577;48.704;9.000;2022-08-27T02:42:06;33.37;;;24.57;;
9082;SDS011;4577;48.704;9.000;2022-08-27T02:44:32;30.17;;;24.80;;
9082;SDS011;4577;48.704;9.000;2022-08-27T02:46:59;32.83;;;24.50;;
9082;SDS011;4577;48.704;9.000;2022-08-27T02:49:27;31.63;;;23.80;;
9082;SDS011;4577;48.704;9.000;2022-08-27T02:51:54;32.90;;;23.90;;
9082;SDS011;4577;48.704;9.000;2022-08-27T02:54:24;32.13;;;24.27;;
9082;SDS011;4577;48.704;9.000;2022-08-27T02:56:51;34.20;;;24.90;;
9082;SDS011;4577;48.704;9.000;2022-08-27T02:59:18;35.30;;;23.80;;
9082;SDS011;4577;48.704;9.000;2022-08-27T03:01:44;31.67;;;24.80;;
9082;SDS011;4577;48.704;9.000;2022-08-27T03:04:10;35.93;;;26.77;;
9082;SDS011;4577;48.704;9.000;2022-08-27T03:06:36;32.70;;;25.60;;
9082;SDS011;4577;48.704;9.000;2022-08-27T03:09:02;30.90;;;24.13;;
9082;SDS011;4577;48.704;9.000;2022-08-27T03:11:28;29.07;;;23.63;;
9082;SDS011;4577;48.704;9.000;2022-08-27T03:13:56;28.20;;;21.00;;
9082;SDS011;4577;48.704;9.000;2022-08-27T03:16:22;31.00;;;21.60;;
9082;SDS011;4577;48.704;9.000;2022-08-27T03:18:49;27.10;;;19.93;;
9082;SDS011;4577;48.704;9.000;2022-08-27T03:21:20;24.83;;;19.77;;
9082;SDS011;4577;48.704;9.000;2022-08-27T03:23:48;30.87;;;22.10;;
9082;SDS011;4577;48.704;9.000;2022-08-27T03:26:15;32.43;;;24.23;;
9082;SDS011;4577;48.704;9.000;2022-08-27T03:28:41;36.40;;;26.67;;
9082;SDS011;4577;48.704;9.000;2022-08-27T03:31:08;45.27;;;33.50;;
9082;SDS011;4577;48.704;9.000;2022-08-27T03:33:39;43.03;;;29.77;;
9082;SDS011;4577;48.704;9.000;2022-08-27T03:36:06;49.67;;;32.77;;
9082;SDS011;4577;48.704;9.000;2022-08-27T03:38:33;48.70;;;34.13;;
9082;SDS011;4577;48.704;9.000;2022-08-27T03:41:00;50.67;;;35.80;;
9082;SDS011;4577;48.704;9.000;2022-08-27T03:43:27;54.20;;;38.73;;
9082;SDS011;4577;48.704;9.000;2022-08-27T03:45:53;58.07;;;39.30;;
9082;SDS011;4577;48.704;9.000;2022-08-27T03:48:19;59.33;;;39.20;;
9082;SDS011;4577;48.704;9.000;2022-08-27T03:50:45;61.07;;;42.07;;
9082;SDS011;4577;48.704;9.000;2022-08-27T03:53:12;61.20;;;43.37;;
9082;SDS011;4577;48.704;9.000;2022-08-27T03:55:39;65.93;;;44.50;;
9082;SDS011;4577;48.704;9.000;2022-08-27T03:58:06;71.47;;;48.60;;
9082;SDS011;4577;48.704;9.000;2022-08-27T04:00:33;71.53;;;48.70;;
9082;SDS011;4577;48.704;9.000;2022-08-27T04:02:59;68.43;;;48.90;;
9082;SDS011;4577;48.704;9.000;2022-08-27T04:05:25;72.57;;;50.70;;
9082;SDS011;4577;48.704;9.000;2022-08-27T04:07:50;72.80;;;51.70;;
9082;SDS011;4577;48.704;9.000;2022-08-27T04:10:16;76.53;;;52.80;;
9082;SDS011;4577;48.704;9.000;2022-08-27T04:12:42;75.87;;;52.30;;
9082;SDS011;4577;48.704;9.000;2022-08-27T04:15:09;77.97;;;53.00;;
9082;SDS011;4577;48.704;9.000;2022-08-27T04:17:37;72.30;;;52.53;;
9082;SDS011;4577;48.704;9.000;2022-08-27T04:20:04;79.97;;;52.97;;
9082;SDS011;4577;48.704;9.000;2022-08-27T04:22:31;75.83;;;53.50;;
9082;SDS011;4577;48.704;9.000;2022-08-27T04:24:58;75.00;;;53.27;;
9082;SDS011;4577;48.704;9.000;2022-08-27T04:27:24;74.20;;;50.97;;
9082;SDS011;4577;48.704;9.000;2022-08-27T04:30:00;71.43;;;50.00;;
9082;SDS011;4577;48.704;9.000;2022-08-27T04:32:27;78.40;;;51.03;;
9082;SDS011;4577;48.704;9.000;2022-08-27T04:34:54;80.67;;;50.70;;
9082;SDS011;4577;48.704;9.000;2022-08-27T04:37:21;95.70;;;51.47;;
9082;SDS011;4577;48.704;9.000;2022-08-27T04:39:47;69.50;;;48.83;;
9082;SDS011;4577;48.704;9.000;2022-08-27T04:42:15;69.27;;;47.70;;
9082;SDS011;4577;48.704;9.000;2022-08-27T04:44:42;78.03;;;47.47;;
9082;SDS011;4577;48.704;9.000;2022-08-27T04:47:08;151.00;;;60.97;;
9082;SDS011;4577;48.704;9.000;2022-08-27T04:49:35;71.50;;;48.70;;
9082;SDS011;4577;48.704;9.000;2022-08-27T04:52:01;87.77;;;49.43;;
9082;SDS011;4577;48.704;9.000;2022-08-27T04:54:28;86.60;;;51.00;;
9082;SDS011;4577;48.704;9.000;2022-08-27T04:56:54;71.40;;;49.10;;
9082;SDS011;4577;48.704;9.000;2022-08-27T04:59:19;72.93;;;49.50;;
9082;SDS011;4577;48.704;9.000;2022-08-27T05:01:45;72.17;;;48.70;;
9082;SDS011;4577;48.704;9.000;2022-08-27T05:04:13;72.90;;;50.00;;
9082;SDS011;4577;48.704;9.000;2022-08-27T05:06:40;75.07;;;51.17;;
9082;SDS011;4577;48.704;9.000;2022-08-27T05:09:09;77.90;;;51.60;;
9082;SDS011;4577;48.704;9.000;2022-08-27T05:11:36;76.63;;;51.27;;
9082;SDS011;4577;48.704;9.000;2022-08-27T05:14:03;78.13;;;52.10;;
9082;SDS011;4577;48.704;9.000;2022-08-27T05:16:30;82.33;;;52.80;;
9082;SDS011;4577;48.704;9.000;2022-08-27T05:18:57;88.80;;;51.90;;
9082;SDS011;4577;48.704;9.000;2022-08-27T05:21:25;74.80;;;50.60;;
9082;SDS011;4577;48.704;9.000;2022-08-27T05:23:53;77.47;;;49.87;;
9082;SDS011;4577;48.704;9.000;2022-08-27T05:26:20;74.97;;;50.60;;
9082;SDS011;4577;48.704;9.000;2022-08-27T05:28:46;77.80;;;50.03;;
9082;SDS011;4577;48.704;9.000;2022-08-27T05:31:12;78.40;;;49.53;;
9082;SDS011;4577;48.704;9.000;2022-08-27T05:33:39;72.33;;;49.53;;
9082;SDS011;4577;48.704;9.000;2022-08-27T05:36:06;76.60;;;50.13;;
9082;SDS011;4577;48.704;9.000;2022-08-27T05:38:38;74.13;;;50.03;;
9082;SDS011;4577;48.704;9.000;2022-08-27T05:41:08;73.53;;;51.27;;
9082;SDS011;4577;48.704;9.000;2022-08-27T05:43:39;73.20;;;50.40;;
9082;SDS011;4577;48.704;9.000;2022-08-27T05:46:06;77.40;;;49.83;;
9082;SDS011;4577;48.704;9.000;2022-08-27T05:48:34;81.80;;;50.90;;
9082;SDS011;4577;48.704;9.000;2022-08-27T05:51:20;88.83;;;52.00;;
9082;SDS011;4577;48.704;9.000;2022-08-27T05:53:49;78.77;;;49.63;;
9082;SDS011;4577;48.704;9.000;2022-08-27T05:56:19;69.13;;;46.47;;
9082;SDS011;4577;48.704;9.000;2022-08-27T05:58:46;76.20;;;49.70;;
9082;SDS011;4577;48.704;9.000;2022-08-27T06:01:33;70.57;;;48.47;;
9082;SDS011;4577;48.704;9.000;2022-08-27T06:04:02;85.07;;;50.30;;
9082;SDS011;4577;48.704;9.000;2022-08-27T06:06:28;70.47;;;48.30;;
9082;SDS011;4577;48.704;9.000;2022-08-27T06:08:54;70.83;;;48.70;;
9082;SDS011;4577;48.704;9.000;2022-08-27T06:11:20;75.13;;;48.00;;
9082;SDS011;4577;48.704;9.000;2022-08-27T06:13:47;67.23;;;46.30;;
9082;SDS011;4577;48.704;9.000;2022-08-27T06:16:15;64.60;;;45.30;;
9082;SDS011;4577;48.704;9.000;2022-08-27T06:18:43;78.30;;;47.40;;
9082;SDS011;4577;48.704;9.000;2022-08-27T06:21:10;66.73;;;46.37;;
9082;SDS011;4577;48.704;9.000;2022-08-27T06:23:37;64.50;;;43.70;;
9082;SDS011;4577;48.704;9.000;2022-08-27T06:26:07;59.33;;;41.60;;
9082;SDS011;4577;48.704;9.000;2022-08-27T06:28:34;62.83;;;43.87;;
9082;SDS011;4577;48.704;9.000;2022-08-27T06:31:03;58.10;;;42.43;;
9082;SDS011;4577;48.704;9.000;2022-08-27T06:33:30;61.63;;;42.67;;
9082;SDS011;4577;48.704;9.000;2022-08-27T06:35:57;60.97;;;41.20;;
9082;SDS011;4577;48.704;9.000;2022-08-27T06:38:24;53.90;;;39.77;;
9082;SDS011;4577;48.704;9.000;2022-08-27T06:40:51;61.90;;;40.90;;
9082;SDS011;4577;48.704;9.000;2022-08-27T06:43:16;54.23;;;37.30;;
9082;SDS011;4577;48.704;9.000;2022-08-27T06:45:42;60.73;;;38.33;;
9082;SDS011;4577;48.704;9.000;2022-08-27T06:48:08;51.70;;;37.77;;
9082;SDS011;4577;48.704;9.000;2022-08-27T06:50:37;49.27;;;39.10;;
9082;SDS011;4577;48.704;9.000;2022-08-27T06:53:04;51.70;;;38.57;;
9082;SDS011;4577;48.704;9.000;2022-08-27T06:55:30;55.17;;;37.97;;
9082;SDS011;4577;48.704;9.000;2022-08-27T06:57:56;56.93;;;38.43;;
9082;SDS011;4577;48.704;9.000;2022-08-27T07:00:22;61.07;;;38.57;;
9082;SDS011;4577;48.704;9.000;2022-08-27T07:02:49;46.83;;;37.40;;
9082;SDS011;4577;48.704;9.000;2022-08-27T07:05:15;49.57;;;37.80;;
9082;SDS011;4577;48.704;9.000;2022-08-27T07:07:42;47.10;;;37.37;;
9082;SDS011;4577;48.704;9.000;2022-08-27T07:10:09;48.60;;;36.17;;
9082;SDS011;4577;48.704;9.000;2022-08-27T07:12:35;45.60;;;35.07;;
9082;SDS011;4577;48.704;9.000;2022-08-27T07:15:00;49.50;;;38.00;;
9082;SDS011;4577;48.704;9.000;2022-08-27T07:17:26;45.17;;;35.37;;
9082;SDS011;4577;48.704;9.000;2022-08-27T07:19:52;53.27;;;35.30;;
9082;SDS011;4577;48.704;9.000;2022-08-27T07:22:18;46.87;;;35.23;;
9082;SDS011;4577;48.704;9.000;2022-08-27T07:24:43;42.43;;;34.13;;
9082;SDS011;4577;48.704;9.000;2022-08-27T07:27:09;46.40;;;33.20;;
9082;SDS011;4577;48.704;9.000;2022-08-27T07:29:35;44.33;;;33.90;;
9082;SDS011;4577;48.704;9.000;2022-08-27T07:32:01;41.13;;;32.40;;
9082;SDS011;4577;48.704;9.000;2022-08-27T07:34:27;43.10;;;34.40;;
9082;SDS011;4577;48.704;9.000;2022-08-27T07:36:52;48.40;;;33.43;;
9082;SDS011;4577;48.704;9.000;2022-08-27T07:39:18;47.80;;;33.93;;
9082;SDS011;4577;48.704;9.000;2022-08-27T07:41:44;45.23;;;33.50;;
9082;SDS011;4577;48.704;9.000;2022-08-27T07:44:28;40.30;;;31.70;;
9082;SDS011;4577;48.704;9.000;2022-08-27T07:46:54;48.77;;;33.03;;
9082;SDS011;4577;48.704;9.000;2022-08-27T07:49:22;45.47;;;33.30;;
9082;SDS011;4577;48.704;9.000;2022-08-27T07:51:49;49.83;;;32.80;;
9082;SDS011;4577;48.704;9.000;2022-08-27T07:54:15;44.40;;;31.97;;
9082;SDS011;4577;48.704;9.000;2022-08-27T07:56:41;47.03;;;32.43;;
9082;SDS011;4577;48.704;9.000;2022-08-27T07:59:07;48.00;;;34.20;;
9082;SDS011;4577;48.704;9.000;2022-08-27T08:01:33;54.87;;;34.63;;
9082;SDS011;4577;48.704;9.000;2022-08-27T08:03:59;53.27;;;34.50;;
9082;SDS011;4577;48.704;9.000;2022-08-27T08:06:25;52.00;;;35.20;;
9082;SDS011;4577;48.704;9.000;2022-08-27T08:08:51;51.03;;;34.90;;
9082;SDS011;4577;48.704;9.000;2022-08-27T08:11:17;54.00;;;34.70;;
9082;SDS011;4577;48.704;9.000;2022-08-27T08:13:44;50.33;;;33.10;;
9082;SDS011;4577;48.704;9.000;2022-08-27T08:16:11;51.00;;;34.57;;
9082;SDS011;4577;48.704;9.000;2022-08-27T08:18:37;44.77;;;34.17;;
9082;SDS011;4577;48.704;9.000;2022-08-27T08:21:06;53.63;;;35.70;;
9082;SDS011;4577;48.704;9.000;2022-08-27T08:23:34;48.97;;;35.47;;
9082;SDS011;4577;48.704;9.000;2022-08-27T08:26:00;58.13;;;35.37;;
9082;SDS011;4577;48.704;9.000;2022-08-27T08:28:26;56.30;;;36.70;;
9082;SDS011;4577;48.704;9.000;2022-08-27T08:30:54;58.67;;;36.90;;
9082;SDS011;4577;48.704;9.000;2022-08-27T08:33:20;51.93;;;36.23;;
9082;SDS011;4577;48.704;9.000;2022-08-27T08:35:46;57.07;;;36.53;;
9082;SDS011;4577;48.704;9.000;2022-08-27T08:38:13;48.80;;;34.93;;
9082;SDS011;4577;48.704;9.000;2022-08-27T08:40:41;47.07;;;35.53;;
9082;SDS011;4577;48.704;9.000;2022-08-27T08:43:20;54.13;;;36.17;;
9082;SDS011;4577;48.704;9.000;2022-08-27T08:46:11;55.30;;;37.03;;
9082;SDS011;4577;48.704;9.000;2022-08-27T08:48:50;62.40;;;38.80;;
9082;SDS011;4577;48.704;9.000;2022-08-27T08:51:22;50.40;;;37.77;;
9082;SDS011;4577;48.704;9.000;2022-08-27T08:54:01;45.63;;;34.90;;
9082;SDS011;4577;48.704;9.000;2022-08-27T08:56:35;50.43;;;37.43;;
9082;SDS011;4577;48.704;9.000;2022-08-27T08:59:08;53.30;;;37.60;;
9082;SDS011;4577;48.704;9.000;2022-08-27T09:01:39;59.80;;;37.13;;
9082;SDS011;4577;48.704;9.000;2022-08-27T09:04:08;53.90;;;37.03;;
9082;SDS011;4577;48.704;9.000;2022-08-27T09:06:46;52.67;;;35.93;;
9082;SDS011;4577;48.704;9.000;2022-08-27T09:11:54;51.87;;;34.97;;
9082;SDS011;4577;48.704;9.000;2022-08-27T09:16:59;49.90;;;33.50;;
9082;SDS011;4577;48.704;9.000;2022-08-27T09:19:26;50.67;;;35.37;;
9082;SDS011;4577;48.704;9.000;2022-08-27T09:21:57;57.90;;;35.40;;
9082;SDS011;4577;48.704;9.000;2022-08-27T09:24:36;53.77;;;34.37;;
9082;SDS011;4577;48.704;9.000;2022-08-27T09:27:29;52.53;;;34.20;;
9082;SDS011;4577;48.704;9.000;2022-08-27T09:29:56;54.97;;;36.00;;
9082;SDS011;4577;48.704;9.000;2022-08-27T09:32:31;53.53;;;33.83;;
9082;SDS011;4577;48.704;9.000;2022-08-27T09:34:58;57.00;;;36.53;;
9082;SDS011;4577;48.704;9.000;2022-08-27T09:37:31;55.20;;;35.80;;
9082;SDS011;4577;48.704;9.000;2022-08-27T09:40:12;55.87;;;36.60;;
9082;SDS011;4577;48.704;9.000;2022-08-27T09:42:55;52.77;;;34.50;;
9082;SDS011;4577;48.704;9.000;2022-08-27T09:45:26;53.87;;;34.40;;
9082;SDS011;4577;48.704;9.000;2022-08-27T09:47:54;53.80;;;33.90;;
9082;SDS011;4577;48.704;9.000;2022-08-27T09:50:29;51.70;;;34.47;;
9082;SDS011;4577;48.704;9.000;2022-08-27T09:52:59;46.53;;;32.00;;
9082;SDS011;4577;48.704;9.000;2022-08-27T09:55:28;51.07;;;30.87;;
9082;SDS011;4577;48.704;9.000;2022-08-27T09:58:13;41.43;;;29.77;;
9082;SDS011;4577;48.704;9.000;2022-08-27T10:00:45;42.87;;;30.70;;
9082;SDS011;4577;48.704;9.000;2022-08-27T10:03:11;48.47;;;31.67;;
9082;SDS011;4577;48.704;9.000;2022-08-27T10:05:48;44.40;;;30.07;;
9082;SDS011;4577;48.704;9.000;2022-08-27T10:08:25;47.07;;;30.47;;
9082;SDS011;4577;48.704;9.000;2022-08-27T10:11:29;36.67;;;26.20;;
9082;SDS011;4577;48.704;9.000;2022-08-27T10:14:11;51.97;;;30.90;;
9082;SDS011;4577;48.704;9.000;2022-08-27T10:19:24;40.13;;;29.10;;
9082;SDS011;4577;48.704;9.000;2022-08-27T10:22:06;41.10;;;27.70;;
9082;SDS011;4577;48.704;9.000;2022-08-27T10:41:36;21.80;;;18.40;;
9082;SDS011;4577;48.704;9.000;2022-08-27T10:52:28;19.87;;;17.07;;
9082;SDS011;4577;48.704;9.000;2022-08-27T10:54:59;21.20;;;14.87;;
9082;SDS011;4577;48.704;9.000;2022-08-27T11:00:18;32.13;;;22.80;;
9082;SDS011;4577;48.704;9.000;2022-08-27T11:05:26;22.23;;;18.53;;
9082;SDS011;4577;48.704;9.000;2022-08-27T11:08:00;20.10;;;17.70;;
9082;SDS011;4577;48.704;9.000;2022-08-27T11:10:35;21.60;;;18.33;;
9082;SDS011;4577;48.704;9.000;2022-08-27T11:13:06;25.00;;;19.17;;
9082;SDS011;4577;48.704;9.000;2022-08-27T11:15:36;26.70;;;20.57;;
9082;SDS011;4577;48.704;9.000;2022-08-27T11:20:43;37.63;;;27.10;;
9082;SDS011;4577;48.704;9.000;2022-08-27T11:23:18;34.13;;;22.50;;
9082;SDS011;4577;48.704;9.000;2022-08-27T11:28:40;32.17;;;24.50;;
9082;SDS011;4577;48.704;9.000;2022-08-27T11:33:57;31.37;;;22.57;;
9082;SDS011;4577;48.704;9.000;2022-08-27T11:39:33;50.93;;;37.47;;
9082;SDS011;4577;48.704;9.000;2022-08-27T11:44:47;29.00;;;21.73;;
9082;SDS011;4577;48.704;9.000;2022-08-27T11:47:20;25.27;;;19.93;;
9082;SDS011;4577;48.704;9.000;2022-08-27T11:49:55;27.17;;;21.67;;
9082;SDS011;4577;48.704;9.000;2022-08-27T11:52:33;26.23;;;20.80;;
9082;SDS011;4577;48.704;9.000;2022-08-27T11:57:35;26.03;;;19.83;;
9082;SDS011;4577;48.704;9.000;2022-08-27T12:00:17;47.83;;;31.23;;
9082;SDS011;4577;48.704;9.000;2022-08-27T12:20:10;43.17;;;22.60;;
9082;SDS011;4577;48.704;9.000;2022-08-27T12:25:57;30.97;;;24.50;;
9082;SDS011;4577;48.704;9.000;2022-08-27T12:28:26;30.67;;;21.67;;
9082;SDS011;4577;48.704;9.000;2022-08-27T12:30:52;30.93;;;20.47;;
9082;SDS011;4577;48.704;9.000;2022-08-27T12:33:27;36.03;;;25.83;;
9082;SDS011;4577;48.704;9.000;2022-08-27T12:35:56;36.30;;;27.03;;
9082;SDS011;4577;48.704;9.000;2022-08-27T12:40:58;38.37;;;26.47;;
9082;SDS011;4577;48.704;9.000;2022-08-27T12:43:33;25.03;;;20.57;;
9082;SDS011;4577;48.704;9.000;2022-08-27T12:46:05;28.20;;;20.17;;
9082;SDS011;4577;48.704;9.000;2022-08-27T12:48:44;35.37;;;23.67;;
9082;SDS011;4577;48.704;9.000;2022-08-27T12:51:22;33.23;;;24.03;;
9082;SDS011;4577;48.704;9.000;2022-08-27T13:02:11;29.00;;;21.97;;
9082;SDS011;4577;48.704;9.000;2022-08-27T13:04:44;29.60;;;22.60;;
9082;SDS011;4577;48.704;9.000;2022-08-27T13:07:12;39.03;;;29.40;;
9082;SDS011;4577;48.704;9.000;2022-08-27T13:09:49;61.67;;;42.03;;
9082;SDS011;4577;48.704;9.000;2022-08-27T13:12:15;67.23;;;31.40;;
9082;SDS011;4577;48.704;9.000;2022-08-27T13:14:43;34.20;;;25.57;;
9082;SDS011;4577;48.704;9.000;2022-08-27T13:17:12;38.13;;;25.57;;
9082;SDS011;4577;48.704;9.000;2022-08-27T13:19:57;38.03;;;27.80;;
9082;SDS011;4577;48.704;9.000;2022-08-27T13:22:28;38.73;;;28.10;;
9082;SDS011;4577;48.704;9.000;2022-08-27T13:24:59;47.43;;;29.27;;
9082;SDS011;4577;48.704;9.000;2022-08-27T13:27:35;39.03;;;24.60;;
9082;SDS011;4577;48.704;9.000;2022-08-27T13:30:04;37.40;;;24.70;;
9082;SDS011;4577;48.704;9.000;2022-08-27T13:32:32;32.87;;;24.37;;
9082;SDS011;4577;48.704;9.000;2022-08-27T13:35:00;37.63;;;24.40;;
9082;SDS011;4577;48.704;9.000;2022-08-27T13:39:56;32.77;;;24.70;;
9082;SDS011;4577;48.704;9.000;2022-08-27T13:42:23;33.00;;;24.47;;
9082;SDS011;4577;48.704;9.000;2022-08-27T13:44:49;37.60;;;25.80;;
9082;SDS011;4577;48.704;9.000;2022-08-27T13:47:24;34.33;;;25.40;;
9082;SDS011;4577;48.704;9.000;2022-08-27T13:50:16;32.73;;;26.80;;
9082;SDS011;4577;48.704;9.000;2022-08-27T13:52:48;32.73;;;27.67;;
9082;SDS011;4577;48.704;9.000;2022-08-27T13:55:36;36.97;;;26.40;;
9082;SDS011;4577;48.704;9.000;2022-08-27T13:58:11;51.40;;;28.13;;
9082;SDS011;4577;48.704;9.000;2022-08-27T14:00:39;35.20;;;27.13;;
9082;SDS011;4577;48.704;9.000;2022-08-27T14:03:21;32.90;;;27.40;;
9082;SDS011;4577;48.704;9.000;2022-08-27T14:05:55;35.40;;;26.30;;
9082;SDS011;4577;48.704;9.000;2022-08-27T14:08:21;32.50;;;26.30;;
9082;SDS011;4577;48.704;9.000;2022-08-27T14:10:49;37.20;;;26.73;;
9082;SDS011;4577;48.704;9.000;2022-08-27T14:13:25;32.23;;;27.83;;
9082;SDS011;4577;48.704;9.000;2022-08-27T14:15:57;36.37;;;28.10;;
9082;SDS011;4577;48.704;9.000;2022-08-27T14:18:34;35.43;;;28.70;;
9082;SDS011;4577;48.704;9.000;2022-08-27T14:21:01;37.80;;;27.80;;
9082;SDS011;4577;48.704;9.000;2022-08-27T14:23:29;42.20;;;28.50;;
9082;SDS011;4577;48.704;9.000;2022-08-27T14:25:56;36.60;;;27.90;;
9082;SDS011;4577;48.704;9.000;2022-08-27T14:28:23;35.60;;;27.50;;
9082;SDS011;4577;48.704;9.000;2022-08-27T14:30:49;37.00;;;28.10;;
9082;SDS011;4577;48.704;9.000;2022-08-27T14:33:16;33.97;;;26.90;;
9082;SDS011;4577;48.704;9.000;2022-08-27T14:35:42;34.60;;;28.07;;
9082;SDS011;4577;48.704;9.000;2022-08-27T14:38:13;34.13;;;27.70;;
9082;SDS011;4577;48.704;9.000;2022-08-27T14:40:50;35.67;;;27.97;;
9082;SDS011;4577;48.704;9.000;2022-08-27T14:43:17;34.50;;;28.70;;
9082;SDS011;4577;48.704;9.000;2022-08-27T14:45:44;38.80;;;28.30;;
9082;SDS011;4577;48.704;9.000;2022-08-27T14:48:12;34.40;;;28.53;;
9082;SDS011;4577;48.704;9.000;2022-08-27T14:50:42;39.83;;;28.57;;
9082;SDS011;4577;48.704;9.000;2022-08-27T14:53:08;39.23;;;28.90;;
9082;SDS011;4577;48.704;9.000;2022-08-27T14:55:34;36.87;;;27.70;;
9082;SDS011;4577;48.704;9.000;2022-08-27T14:58:00;37.10;;;27.00;;
9082;SDS011;4577;48.704;9.000;2022-08-27T15:00:26;44.03;;;28.43;;
9082;SDS011;4577;48.704;9.000;2022-08-27T15:02:54;35.20;;;27.70;;
9082;SDS011;4577;48.704;9.000;2022-08-27T15:05:22;36.47;;;27.67;;
9082;SDS011;4577;48.704;9.000;2022-08-27T15:07:48;34.90;;;27.00;;
9082;SDS011;4577;48.704;9.000;2022-08-27T15:10:14;33.20;;;26.70;;
9082;SDS011;4577;48.704;9.000;2022-08-27T15:12:41;33.07;;;26.77;;
9082;SDS011;4577;48.704;9.000;2022-08-27T15:15:07;36.77;;;25.13;;
9082;SDS011;4577;48.704;9.000;2022-08-27T15:17:34;30.47;;;24.80;;
9082;SDS011;4577;48.704;9.000;2022-08-27T15:20:00;32.80;;;24.80;;
9082;SDS011;4577;48.704;9.000;2022-08-27T15:22:30;29.90;;;25.30;;
9082;SDS011;4577;48.704;9.000;2022-08-27T15:24:58;41.60;;;30.93;;
9082;SDS011;4577;48.704;9.000;2022-08-27T15:27:24;41.53;;;28.47;;
9082;SDS011;4577;48.704;9.000;2022-08-27T15:29:51;32.33;;;25.10;;
9082;SDS011;4577;48.704;9.000;2022-08-27T15:32:21;27.73;;;24.03;;
9082;SDS011;4577;48.704;9.000;2022-08-27T15:34:58;39.33;;;26.40;;
9082;SDS011;4577;48.704;9.000;2022-08-27T15:37:25;33.17;;;25.80;;
9082;SDS011;4577;48.704;9.000;2022-08-27T15:39:51;33.77;;;25.97;;
9082;SDS011;4577;48.704;9.000;2022-08-27T15:42:17;36.20;;;26.00;;
9082;SDS011;4577;48.704;9.000;2022-08-27T15:44:49;32.03;;;24.70;;
9082;SDS011;4577;48.704;9.000;2022-08-27T15:47:19;35.60;;;25.10;;
9082;SDS011;4577;48.704;9.000;2022-08-27T15:49:45;33.70;;;25.93;;
9082;SDS011;4577;48.704;9.000;2022-08-27T15:52:12;32.20;;;25.40;;
9082;SDS011;4577;48.704;9.000;2022-08-27T15:54:39;36.40;;;26.20;;
9082;SDS011;4577;48.704;9.000;2022-08-27T15:57:06;31.93;;;26.90;;
9082;SDS011;4577;48.704;9.000;2022-08-27T15:59:32;33.90;;;28.20;;
9082;SDS011;4577;48.704;9.000;2022-08-27T16:01:58;36.00;;;28.83;;
9082;SDS011;4577;48.704;9.000;2022-08-27T16:04:25;34.40;;;27.60;;
9082;SDS011;4577;48.704;9.000;2022-08-27T16:06:51;41.43;;;28.47;;
9082;SDS011;4577;48.704;9.000;2022-08-27T16:09:18;37.87;;;29.30;;
9082;SDS011;4577;48.704;9.000;2022-08-27T16:11:44;29.80;;;26.23;;
9082;SDS011;4577;48.704;9.000;2022-08-27T16:14:10;35.83;;;27.50;;
9082;SDS011;4577;48.704;9.000;2022-08-27T16:16:37;39.20;;;29.97;;
9082;SDS011;4577;48.704;9.000;2022-08-27T16:19:04;42.30;;;30.30;;
9082;SDS011;4577;48.704;9.000;2022-08-27T16:21:31;42.30;;;29.70;;
9082;SDS011;4577;48.704;9.000;2022-08-27T16:24:02;38.40;;;28.07;;
9082;SDS011;4577;48.704;9.000;2022-08-27T16:26:29;44.50;;;29.60;;
9082;SDS011;4577;48.704;9.000;2022-08-27T16:28:55;35.73;;;29.87;;
9082;SDS011;4577;48.704;9.000;2022-08-27T16:31:21;39.63;;;32.13;;